Time;durP1;ratioP1;P1;durP2;ratioP2;P2;SDS_P1;SDS_P2;PMS_P1;PMS_P2;Temp;Humidity;BMP_temperature;BMP_pressure;BME280_temperature;BME280_humidity;BME280_pressure;Samples;Min_cycle;Max_cycle;Signal;HPM_P1;HPM_P2
2022/10/26 00:01:00;;;;;;;1.65;0.90;;;15.40;99.90;;;;;;5000450;28;20060;-79
2022/10/26 00:03:27;;;;;;;1.45;1.00;;;15.40;99.90;;;;;;5000645;28;20049;-79
2022/10/26 00:05:54;;;;;;;1.40;0.80;;;15.40;99.90;;;;;;5035810;28;20049;-79
2022/10/26 00:08:21;;;;;;;1.13;0.73;;;15.50;99.90;;;;;;5035548;28;20115;-81
2022/10/26 00:10:48;;;;;;;0.75;0.52;;;15.50;99.90;;;;;;5031956;28;21055;-80
2022/10/26 00:13:15;;;;;;;0.65;0.40;;;15.50;99.90;;;;;;5031658;28;20044;-80
2022/10/26 00:15:41;;;;;;;0.90;0.70;;;15.50;99.90;;;;;;5002130;28;20083;-81
2022/10/26 00:18:09;;;;;;;1.50;0.70;;;15.50;99.90;;;;;;5037575;28;20451;-81
2022/10/26 00:20:36;;;;;;;1.50;0.73;;;15.50;99.90;;;;;;5036548;28;20064;-81
2022/10/26 00:23:03;;;;;;;0.88;0.57;;;15.60;99.90;;;;;;5004899;28;20055;-81
2022/10/26 00:25:30;;;;;;;2.42;0.80;;;15.60;99.90;;;;;;5023016;28;20049;-79
2022/10/26 00:27:56;;;;;;;0.60;0.55;;;15.60;99.90;;;;;;5041303;28;20053;-78
2022/10/26 00:30:23;;;;;;;1.55;0.90;;;15.60;99.90;;;;;;5040076;28;20784;-79
2022/10/26 00:32:50;;;;;;;1.08;0.70;;;15.60;99.90;;;;;;5006213;28;20061;-79
2022/10/26 00:35:17;;;;;;;1.13;0.70;;;15.60;99.90;;;;;;5022297;28;20050;-78
2022/10/26 00:38:00;;;;;;;1.20;0.80;;;15.60;99.90;;;;;;4992471;28;20064;-78
2022/10/26 00:40:28;;;;;;;1.10;0.60;;;15.60;99.90;;;;;;5037173;28;20090;-79
2022/10/26 00:42:55;;;;;;;0.63;0.55;;;15.60;99.90;;;;;;5023525;28;20053;-79
2022/10/26 00:45:27;;;;;;;1.70;0.70;;;15.60;99.90;;;;;;5039959;28;20511;-79
2022/10/26 00:47:57;;;;;;;1.35;0.80;;;15.60;99.90;;;;;;5039144;28;20049;-79
2022/10/26 00:50:38;;;;;;;2.42;0.90;;;15.70;99.90;;;;;;5039909;28;20071;-79
2022/10/26 00:53:05;;;;;;;1.98;0.80;;;15.70;99.90;;;;;;5009277;28;20128;-79
2022/10/26 00:55:34;;;;;;;1.85;0.85;;;15.60;99.90;;;;;;5019573;28;20045;-79
2022/10/26 00:58:02;;;;;;;2.05;1.00;;;15.70;99.90;;;;;;5004149;28;20056;-79
2022/10/26 01:00:29;;;;;;;1.55;0.93;;;15.70;99.90;;;;;;5004691;28;20067;-79
2022/10/26 01:02:57;;;;;;;0.90;0.68;;;15.70;99.90;;;;;;5023674;28;20136;-79
2022/10/26 01:05:23;;;;;;;0.88;0.63;;;15.70;99.90;;;;;;5003792;28;20454;-79
2022/10/26 01:07:50;;;;;;;2.08;0.82;;;15.70;99.90;;;;;;4987770;28;20057;-78
2022/10/26 01:10:17;;;;;;;2.20;1.15;;;15.70;99.90;;;;;;5004593;28;20366;-78
2022/10/26 01:12:44;;;;;;;1.17;0.88;;;15.60;99.90;;;;;;5007974;28;20505;-79
2022/10/26 01:15:11;;;;;;;2.42;0.90;;;15.60;99.90;;;;;;5003869;28;20060;-79
2022/10/26 01:17:55;;;;;;;2.50;0.70;;;15.70;99.90;;;;;;5019531;28;20076;-78
2022/10/26 01:20:31;;;;;;;0.82;0.55;;;15.60;99.90;;;;;;5003484;28;20057;-80
2022/10/26 01:23:29;;;;;;;1.20;0.73;;;15.70;99.90;;;;;;5039977;28;20057;-79
2022/10/26 01:26:33;;;;;;;1.98;0.93;;;15.70;99.90;;;;;;5040834;28;20049;-79
2022/10/26 01:29:06;;;;;;;0.93;0.70;;;15.70;99.90;;;;;;5041723;28;20053;-79
2022/10/26 01:32:03;;;;;;;0.80;0.50;;;15.70;99.90;;;;;;5039946;28;20420;-79
2022/10/26 01:34:42;;;;;;;0.63;0.50;;;15.70;99.90;;;;;;5036457;28;20063;-79
2022/10/26 01:37:14;;;;;;;1.77;0.57;;;15.70;99.90;;;;;;5056135;28;20060;-79
2022/10/26 01:39:44;;;;;;;2.08;0.60;;;15.70;99.90;;;;;;5058245;28;20056;-79
2022/10/26 01:42:11;;;;;;;0.63;0.50;;;15.70;99.90;;;;;;5057302;28;20055;-79
2022/10/26 01:44:41;;;;;;;1.63;0.80;;;15.70;99.90;;;;;;5009760;28;20158;-79
2022/10/26 01:47:10;;;;;;;2.47;0.95;;;15.70;99.90;;;;;;5024818;28;20077;-80
2022/10/26 01:49:39;;;;;;;2.08;0.93;;;15.70;99.90;;;;;;5009996;28;20055;-80
2022/10/26 01:52:07;;;;;;;1.15;0.90;;;15.70;99.90;;;;;;5005130;28;20053;-80
2022/10/26 01:54:35;;;;;;;1.00;0.60;;;15.70;99.90;;;;;;5009603;28;20045;-79
2022/10/26 01:57:05;;;;;;;1.33;0.70;;;15.70;99.90;;;;;;5012082;28;20084;-78
2022/10/26 01:59:34;;;;;;;1.52;0.70;;;15.60;99.90;;;;;;5013263;28;20049;-80
2022/10/26 02:02:42;;;;;;;1.63;0.80;;;15.60;99.90;;;;;;5024095;28;20056;-80
2022/10/26 02:05:18;;;;;;;1.25;0.63;;;15.70;99.90;;;;;;5045163;28;20140;-81
2022/10/26 02:07:56;;;;;;;1.15;0.70;;;15.60;99.90;;;;;;5044610;28;20051;-81
2022/10/26 02:10:31;;;;;;;1.05;0.82;;;15.60;99.90;;;;;;5045641;28;20117;-81
2022/10/26 02:13:29;;;;;;;0.70;0.55;;;15.60;99.90;;;;;;5024626;28;20056;-81
2022/10/26 02:16:16;;;;;;;1.92;0.82;;;15.60;99.90;;;;;;5041721;28;20068;-81
2022/10/26 02:19:02;;;;;;;1.08;0.50;;;15.60;99.90;;;;;;5024656;28;20777;-81
2022/10/26 02:21:35;;;;;;;1.73;0.85;;;15.60;99.90;;;;;;5016065;28;20132;-80
2022/10/26 02:24:02;;;;;;;1.77;0.70;;;15.60;99.90;;;;;;5008613;28;20049;-80
2022/10/26 02:26:29;;;;;;;1.88;0.75;;;15.60;99.90;;;;;;4992661;28;20487;-81
2022/10/26 02:28:59;;;;;;;1.48;0.90;;;15.60;99.90;;;;;;4992966;28;20056;-79
2022/10/26 02:31:26;;;;;;;1.52;0.93;;;15.60;99.90;;;;;;5032480;28;20132;-79
2022/10/26 02:33:53;;;;;;;1.35;0.95;;;15.60;99.90;;;;;;5025391;28;20057;-79
2022/10/26 02:36:28;;;;;;;1.10;0.70;;;15.60;99.90;;;;;;5024683;28;20056;-78
2022/10/26 02:38:54;;;;;;;1.48;0.95;;;15.60;99.90;;;;;;4993301;28;20045;-80
2022/10/26 02:41:21;;;;;;;2.65;1.00;;;15.60;99.90;;;;;;4998973;28;20045;-78
2022/10/26 02:44:12;;;;;;;2.10;1.00;;;15.50;99.90;;;;;;5024786;28;20097;-80
2022/10/26 02:46:38;;;;;;;2.35;0.90;;;15.50;99.90;;;;;;4994247;28;20061;-81
2022/10/26 02:49:05;;;;;;;2.03;0.90;;;15.50;99.90;;;;;;5009078;28;20381;-78
2022/10/26 02:51:37;;;;;;;1.95;0.98;;;15.40;99.90;;;;;;5015488;28;20655;-81
2022/10/26 02:54:15;;;;;;;2.92;1.00;;;15.40;99.90;;;;;;5007975;28;20048;-78
2022/10/26 02:56:51;;;;;;;1.58;1.00;;;15.40;99.90;;;;;;5024704;28;20760;-79
2022/10/26 02:59:18;;;;;;;3.10;0.82;;;15.40;99.90;;;;;;5024740;28;20497;-79
2022/10/26 03:01:45;;;;;;;1.38;0.90;;;15.40;99.90;;;;;;5000722;28;20049;-80
2022/10/26 03:04:12;;;;;;;2.22;1.00;;;15.30;99.90;;;;;;5008316;28;20061;-79
2022/10/26 03:06:39;;;;;;;1.88;0.98;;;15.30;99.90;;;;;;5006980;28;20084;-78
2022/10/26 03:09:06;;;;;;;1.50;0.90;;;15.30;99.90;;;;;;4991565;28;20073;-81
2022/10/26 03:11:33;;;;;;;1.80;1.00;;;15.30;99.90;;;;;;5032205;28;20061;-81
2022/10/26 03:14:00;;;;;;;1.98;0.90;;;15.30;99.90;;;;;;5008464;28;20148;-81
2022/10/26 03:16:26;;;;;;;2.08;1.10;;;15.30;99.90;;;;;;5007858;28;20409;-81
2022/10/26 03:18:53;;;;;;;1.08;0.70;;;15.30;99.90;;;;;;4991096;28;20042;-81
2022/10/26 03:21:20;;;;;;;1.00;0.88;;;15.30;99.90;;;;;;5012651;28;20076;-80
2022/10/26 03:23:49;;;;;;;1.73;0.98;;;15.30;99.90;;;;;;5023596;28;20053;-81
2022/10/26 03:26:16;;;;;;;1.38;0.93;;;15.30;99.90;;;;;;4992398;28;20045;-79
2022/10/26 03:28:43;;;;;;;1.33;0.82;;;15.30;99.90;;;;;;5023818;28;20124;-81
2022/10/26 03:31:10;;;;;;;1.77;0.80;;;15.30;99.90;;;;;;5028276;28;20727;-80
2022/10/26 03:33:36;;;;;;;2.00;1.10;;;15.30;99.90;;;;;;5022679;28;20405;-80
2022/10/26 03:36:03;;;;;;;1.13;0.80;;;15.30;99.90;;;;;;4989967;28;20053;-80
2022/10/26 03:38:30;;;;;;;1.23;0.73;;;15.30;99.90;;;;;;4990747;28;20053;-81
2022/10/26 03:40:57;;;;;;;0.52;0.52;;;15.30;99.90;;;;;;5009636;28;20080;-80
2022/10/26 03:43:24;;;;;;;1.30;0.90;;;15.30;99.90;;;;;;5007303;28;20053;-81
2022/10/26 03:45:50;;;;;;;1.25;0.60;;;15.30;99.90;;;;;;5023608;28;20083;-80
2022/10/26 03:48:17;;;;;;;2.17;0.80;;;15.30;99.90;;;;;;5006643;28;20156;-81
2022/10/26 03:50:44;;;;;;;1.13;0.70;;;15.20;99.90;;;;;;4990742;28;20059;-80
2022/10/26 03:53:11;;;;;;;1.20;0.90;;;15.30;99.90;;;;;;5023000;28;20439;-81
2022/10/26 03:55:38;;;;;;;2.08;0.70;;;15.20;99.90;;;;;;4991403;28;20598;-80
2022/10/26 03:58:05;;;;;;;1.95;1.23;;;15.30;99.90;;;;;;5006600;28;20046;-80
2022/10/26 04:00:34;;;;;;;1.58;1.00;;;15.30;99.90;;;;;;5007042;28;20136;-79
2022/10/26 04:03:01;;;;;;;2.70;0.98;;;15.40;99.90;;;;;;5041320;28;20049;-80
2022/10/26 04:05:28;;;;;;;1.95;0.60;;;15.50;99.90;;;;;;5026069;28;20049;-79
2022/10/26 04:07:56;;;;;;;1.10;0.70;;;15.60;99.90;;;;;;5042805;28;20052;-79
2022/10/26 04:10:24;;;;;;;1.10;0.88;;;15.60;99.90;;;;;;5043309;28;20055;-79
2022/10/26 04:12:51;;;;;;;1.23;0.90;;;15.70;99.90;;;;;;5022967;28;20055;-80
2022/10/26 04:15:18;;;;;;;1.30;0.88;;;15.80;99.90;;;;;;5022826;28;20504;-80
2022/10/26 04:17:45;;;;;;;1.60;0.73;;;15.80;99.90;;;;;;4989635;28;20589;-80
2022/10/26 04:20:13;;;;;;;1.52;0.90;;;15.90;99.90;;;;;;5024043;28;20049;-80
2022/10/26 04:22:40;;;;;;;1.77;0.90;;;16.00;99.90;;;;;;5037765;28;20056;-79
2022/10/26 04:25:07;;;;;;;2.05;1.10;;;16.00;99.90;;;;;;5010727;28;20086;-80
2022/10/26 04:27:34;;;;;;;1.98;0.93;;;16.10;99.90;;;;;;5026398;28;20048;-79
2022/10/26 04:30:01;;;;;;;3.42;0.95;;;16.20;99.90;;;;;;5010692;28;20053;-79
2022/10/26 04:32:27;;;;;;;1.70;1.00;;;16.20;99.90;;;;;;5041414;28;20052;-80
2022/10/26 04:34:54;;;;;;;1.75;0.93;;;16.20;99.90;;;;;;5026330;28;20048;-80
2022/10/26 04:37:21;;;;;;;1.88;1.15;;;16.30;99.90;;;;;;5009281;28;20045;-78
2022/10/26 04:39:48;;;;;;;1.50;1.00;;;16.40;99.90;;;;;;5010077;28;20059;-81
2022/10/26 04:42:15;;;;;;;1.52;0.80;;;16.40;99.90;;;;;;5007060;28;20429;-81
2022/10/26 04:44:41;;;;;;;1.55;0.90;;;16.40;99.90;;;;;;5026653;28;20041;-81
2022/10/26 04:47:08;;;;;;;3.05;0.93;;;16.40;99.90;;;;;;5025496;28;20057;-81
2022/10/26 04:49:35;;;;;;;2.65;1.10;;;16.40;99.90;;;;;;5026937;28;20443;-81
2022/10/26 04:52:02;;;;;;;2.15;1.15;;;16.50;99.90;;;;;;5021124;28;20867;-81
2022/10/26 04:54:28;;;;;;;1.33;0.88;;;16.50;99.90;;;;;;5042550;28;20059;-81
2022/10/26 04:56:55;;;;;;;1.55;0.85;;;16.50;99.90;;;;;;5042298;28;20059;-81
2022/10/26 04:59:22;;;;;;;2.25;1.05;;;16.50;99.90;;;;;;5010216;28;20049;-81
2022/10/26 05:01:49;;;;;;;1.15;0.65;;;16.50;99.90;;;;;;5004996;28;20054;-81
2022/10/26 05:04:16;;;;;;;1.13;0.75;;;16.50;99.90;;;;;;5019723;28;20045;-81
2022/10/26 05:06:42;;;;;;;1.75;0.88;;;16.50;99.90;;;;;;5018645;28;20573;-80
2022/10/26 05:09:09;;;;;;;2.35;1.00;;;16.50;99.90;;;;;;5020962;28;20517;-81
2022/10/26 05:11:36;;;;;;;2.03;1.00;;;16.40;99.90;;;;;;5020065;28;20508;-80
2022/10/26 05:14:03;;;;;;;2.17;0.93;;;16.40;99.90;;;;;;5022491;28;20049;-80
2022/10/26 05:16:30;;;;;;;1.77;1.05;;;16.30;99.90;;;;;;5055979;28;20425;-81
2022/10/26 05:18:56;;;;;;;2.05;0.90;;;16.20;99.90;;;;;;5005680;28;20141;-80
2022/10/26 05:21:23;;;;;;;1.38;0.82;;;16.10;99.90;;;;;;5046828;28;20159;-80
2022/10/26 05:23:54;;;;;;;1.50;1.00;;;16.10;99.90;;;;;;5037643;28;20145;-81
2022/10/26 05:26:22;;;;;;;4.05;1.33;;;16.00;99.90;;;;;;5055440;28;20455;-80
2022/10/26 05:28:49;;;;;;;2.10;0.93;;;16.00;99.90;;;;;;5024059;28;20049;-81
2022/10/26 05:31:16;;;;;;;1.92;1.00;;;15.90;99.90;;;;;;5027307;28;20047;-81
2022/10/26 05:33:43;;;;;;;2.15;1.15;;;15.90;99.90;;;;;;5038907;28;20180;-81
2022/10/26 05:36:10;;;;;;;1.23;0.60;;;15.90;99.90;;;;;;5013046;28;20055;-81
2022/10/26 05:38:40;;;;;;;2.08;1.00;;;15.80;99.90;;;;;;5041884;28;20045;-80
2022/10/26 05:41:07;;;;;;;2.95;0.90;;;15.90;99.90;;;;;;5045540;28;20099;-80
2022/10/26 05:43:33;;;;;;;0.93;0.70;;;15.80;99.90;;;;;;5030788;28;20047;-80
2022/10/26 05:46:00;;;;;;;0.98;0.68;;;15.80;99.90;;;;;;5049764;28;20059;-82
2022/10/26 05:48:27;;;;;;;0.68;0.52;;;15.70;99.90;;;;;;5032848;28;20059;-80
2022/10/26 05:50:57;;;;;;;1.17;0.80;;;15.70;99.90;;;;;;5032919;28;20048;-80
2022/10/26 05:53:23;;;;;;;1.67;1.00;;;15.70;99.90;;;;;;5012038;28;20044;-81
2022/10/26 05:55:51;;;;;;;1.20;0.75;;;15.70;99.90;;;;;;5007766;28;20053;-81
2022/10/26 05:58:18;;;;;;;0.93;0.70;;;15.60;99.90;;;;;;5030282;28;20389;-82
2022/10/26 06:00:51;;;;;;;1.52;0.52;;;15.60;99.90;;;;;;5044445;28;20069;-82
2022/10/26 06:03:41;;;;;;;2.15;0.98;;;15.70;99.90;;;;;;5023763;28;20602;-82
2022/10/26 06:06:08;;;;;;;1.55;0.73;;;15.70;99.90;;;;;;5042586;28;20049;-82
2022/10/26 06:08:35;;;;;;;2.50;0.90;;;15.80;99.90;;;;;;5027559;28;20052;-82
2022/10/26 06:11:02;;;;;;;1.83;0.88;;;15.90;99.90;;;;;;5028040;28;20383;-82
2022/10/26 06:13:29;;;;;;;1.13;0.60;;;16.00;99.90;;;;;;5027296;28;20048;-82
2022/10/26 06:16:00;;;;;;;1.05;0.68;;;16.00;99.90;;;;;;5028173;28;20152;-82
2022/10/26 06:18:51;;;;;;;1.48;1.00;;;16.00;99.90;;;;;;5029904;28;20615;-82
2022/10/26 06:21:58;;;;;;;2.72;1.50;;;16.00;99.90;;;;;;5041939;28;20057;-81
2022/10/26 06:24:28;;;;;;;0.50;0.47;;;15.90;99.90;;;;;;5022188;28;20497;-82
2022/10/26 06:27:32;;;;;;;0.82;0.55;;;15.90;99.90;;;;;;5049563;28;20206;-82
2022/10/26 06:30:00;;;;;;;1.90;0.68;;;15.90;99.90;;;;;;5050465;28;20127;-82
2022/10/26 06:32:27;;;;;;;1.20;0.70;;;15.90;99.90;;;;;;5024631;28;20083;-82
2022/10/26 06:35:23;;;;;;;0.80;0.60;;;15.90;99.90;;;;;;5042960;28;20052;-80
2022/10/26 06:37:50;;;;;;;1.38;0.80;;;15.90;99.90;;;;;;5039616;28;20266;-83
2022/10/26 06:40:17;;;;;;;1.33;0.73;;;15.90;99.90;;;;;;5022117;28;20184;-79
2022/10/26 06:42:45;;;;;;;1.73;0.70;;;15.90;99.90;;;;;;5006242;28;20132;-79
2022/10/26 06:45:15;;;;;;;1.92;0.88;;;15.80;99.90;;;;;;5038811;28;20546;-79
2022/10/26 06:47:51;;;;;;;1.40;0.80;;;15.80;99.90;;;;;;5053751;28;20331;-79
2022/10/26 06:50:29;;;;;;;1.02;0.50;;;15.80;99.90;;;;;;5021321;28;20049;-78
2022/10/26 06:53:12;;;;;;;1.67;0.95;;;15.80;99.90;;;;;;5005832;28;20143;-78
2022/10/26 06:55:43;;;;;;;2.08;0.95;;;15.80;99.90;;;;;;5040161;28;20041;-77
2022/10/26 06:58:18;;;;;;;1.95;0.98;;;15.80;99.90;;;;;;5055302;28;20451;-78
2022/10/26 07:00:47;;;;;;;1.95;0.80;;;15.80;99.90;;;;;;5020948;28;20769;-78
2022/10/26 07:03:14;;;;;;;2.30;1.17;;;15.90;99.90;;;;;;5038254;28;20057;-78
2022/10/26 07:05:41;;;;;;;1.73;0.80;;;15.90;99.90;;;;;;5039905;28;20072;-78
2022/10/26 07:08:08;;;;;;;2.20;0.90;;;15.90;99.90;;;;;;5038911;28;20555;-78
2022/10/26 07:10:37;;;;;;;2.05;0.85;;;15.90;99.90;;;;;;5039693;28;20045;-78
2022/10/26 07:13:05;;;;;;;3.00;0.90;;;15.90;99.90;;;;;;5040374;28;20049;-78
2022/10/26 07:15:33;;;;;;;2.85;1.20;;;16.00;99.90;;;;;;5022298;28;20060;-78
2022/10/26 07:18:00;;;;;;;1.63;1.10;;;16.00;99.90;;;;;;5042572;28;20118;-79
2022/10/26 07:20:27;;;;;;;2.15;0.82;;;16.00;99.90;;;;;;5025654;28;20366;-80
2022/10/26 07:22:54;;;;;;;1.50;0.70;;;16.00;99.90;;;;;;5031133;28;20140;-77
2022/10/26 07:25:21;;;;;;;2.35;0.93;;;16.00;99.90;;;;;;5040622;28;20052;-78
2022/10/26 07:27:48;;;;;;;1.60;0.50;;;16.00;99.90;;;;;;5039376;28;20164;-77
2022/10/26 07:30:15;;;;;;;1.63;0.60;;;16.00;99.90;;;;;;5043649;28;20520;-78
2022/10/26 07:32:42;;;;;;;1.55;0.70;;;16.00;99.90;;;;;;5038529;28;20148;-77
2022/10/26 07:35:09;;;;;;;1.20;0.60;;;16.00;99.90;;;;;;5018956;28;20045;-77
2022/10/26 07:37:36;;;;;;;0.90;0.60;;;16.00;99.90;;;;;;5038466;28;20601;-78
2022/10/26 07:40:05;;;;;;;1.27;0.63;;;16.00;99.90;;;;;;5038607;28;20551;-77
2022/10/26 07:42:33;;;;;;;1.65;0.90;;;16.00;99.90;;;;;;5033614;28;20721;-77
2022/10/26 07:44:59;;;;;;;1.55;0.70;;;16.00;99.90;;;;;;5039950;28;20123;-75
2022/10/26 07:47:26;;;;;;;4.22;0.70;;;16.00;99.90;;;;;;5042179;28;20610;-78
2022/10/26 07:49:53;;;;;;;1.65;0.65;;;16.00;99.90;;;;;;5045177;28;20052;-79
2022/10/26 07:52:20;;;;;;;1.73;0.75;;;16.10;99.90;;;;;;5016909;28;20053;-77
2022/10/26 07:54:47;;;;;;;2.25;0.70;;;16.20;99.90;;;;;;5035064;28;20055;-79
2022/10/26 07:57:16;;;;;;;2.17;0.82;;;16.30;99.90;;;;;;5036991;28;20072;-79
2022/10/26 07:59:43;;;;;;;2.67;0.60;;;16.40;99.90;;;;;;5037726;28;20098;-79
2022/10/26 08:02:10;;;;;;;0.73;0.55;;;16.40;99.90;;;;;;5015134;28;20178;-79
2022/10/26 08:04:37;;;;;;;3.28;0.90;;;16.50;99.90;;;;;;5038066;28;20051;-79
2022/10/26 08:07:04;;;;;;;2.65;0.90;;;16.60;99.90;;;;;;5021131;28;20055;-79
2022/10/26 08:09:31;;;;;;;1.83;0.70;;;16.60;99.90;;;;;;5040691;28;20218;-79
2022/10/26 08:11:58;;;;;;;1.58;0.80;;;16.70;99.90;;;;;;5003186;28;20081;-79
2022/10/26 08:14:25;;;;;;;1.48;0.65;;;16.80;99.90;;;;;;5021032;28;20199;-80
2022/10/26 08:16:52;;;;;;;3.05;1.17;;;16.80;99.90;;;;;;5022287;28;20068;-77
2022/10/26 08:19:19;;;;;;;2.05;0.80;;;16.90;99.90;;;;;;5021505;28;20372;-80
2022/10/26 08:21:46;;;;;;;1.55;0.60;;;17.00;99.90;;;;;;5014921;28;20668;-81
2022/10/26 08:24:13;;;;;;;0.73;0.40;;;17.00;99.90;;;;;;5038244;28;20045;-80
2022/10/26 08:26:40;;;;;;;1.10;0.70;;;17.00;99.90;;;;;;5038986;28;20051;-80
2022/10/26 08:29:07;;;;;;;1.65;0.75;;;17.10;99.90;;;;;;5054464;28;20092;-80
2022/10/26 08:31:34;;;;;;;2.40;0.90;;;17.10;99.90;;;;;;5037283;28;20489;-79
2022/10/26 08:34:02;;;;;;;2.60;0.85;;;17.20;99.90;;;;;;5012647;28;20053;-80
2022/10/26 08:36:30;;;;;;;3.08;1.17;;;17.20;99.90;;;;;;5021996;28;20059;-78
2022/10/26 08:38:56;;;;;;;1.33;0.80;;;17.30;99.90;;;;;;5036445;28;20139;-78
2022/10/26 08:41:32;;;;;;;2.47;0.90;;;17.30;99.90;;;;;;5041347;28;20484;-78
2022/10/26 08:44:02;;;;;;;3.50;1.30;;;17.40;99.90;;;;;;5024905;28;20279;-78
2022/10/26 08:46:40;;;;;;;1.42;0.80;;;17.40;99.90;;;;;;5025521;28;20446;-78
2022/10/26 08:49:23;;;;;;;2.00;0.95;;;17.50;99.90;;;;;;5006850;28;20083;-78
2022/10/26 08:51:52;;;;;;;2.55;1.00;;;17.60;99.90;;;;;;5027529;28;20413;-78
2022/10/26 08:54:36;;;;;;;2.05;1.02;;;17.60;99.90;;;;;;5020253;28;20055;-78
2022/10/26 08:57:20;;;;;;;1.52;0.80;;;17.70;99.90;;;;;;5025199;28;20052;-79
2022/10/26 08:59:55;;;;;;;3.45;1.20;;;17.90;99.90;;;;;;5025145;28;20485;-78
2022/10/26 09:02:23;;;;;;;2.50;1.00;;;18.00;99.90;;;;;;5018224;28;20067;-79
2022/10/26 09:04:51;;;;;;;2.22;0.80;;;18.10;99.90;;;;;;5002051;28;20462;-79
2022/10/26 09:07:28;;;;;;;3.13;1.13;;;18.20;99.90;;;;;;5032278;28;20569;-79
2022/10/26 09:10:33;;;;;;;1.63;0.85;;;18.20;99.90;;;;;;5045047;28;20227;-79
2022/10/26 09:13:26;;;;;;;1.85;1.00;;;18.30;99.90;;;;;;5037172;28;20511;-77
2022/10/26 09:16:05;;;;;;;4.15;1.20;;;18.30;99.90;;;;;;5031269;28;20049;-77
2022/10/26 09:18:52;;;;;;;3.05;1.30;;;18.30;99.90;;;;;;5041107;28;20255;-78
2022/10/26 09:21:31;;;;;;;1.85;1.10;;;18.20;99.90;;;;;;5045550;28;20539;-78
2022/10/26 09:23:59;;;;;;;3.25;1.40;;;18.30;99.90;;;;;;5040213;28;20060;-79
2022/10/26 09:26:31;;;;;;;4.03;1.90;;;18.40;99.90;;;;;;5040439;28;20045;-79
2022/10/26 09:29:02;;;;;;;2.65;1.35;;;18.50;99.90;;;;;;5047943;28;20049;-79
2022/10/26 09:31:37;;;;;;;2.58;1.10;;;18.50;99.90;;;;;;5057621;28;20041;-78
2022/10/26 09:34:16;;;;;;;2.67;1.25;;;18.60;99.90;;;;;;5008625;28;20076;-79
2022/10/26 09:36:43;;;;;;;3.90;1.20;;;18.60;99.90;;;;;;5008470;28;20049;-79
2022/10/26 09:39:23;;;;;;;2.65;1.30;;;18.50;99.90;;;;;;5022256;28;20356;-79
2022/10/26 09:42:15;;;;;;;3.33;1.52;;;18.40;99.90;;;;;;5040490;28;20065;-79
2022/10/26 09:45:12;;;;;;;3.83;2.10;;;18.30;99.90;;;;;;5030657;28;20155;-79
2022/10/26 09:47:41;;;;;;;3.75;1.83;;;18.30;99.90;;;;;;5038788;28;20041;-79
2022/10/26 09:50:29;;;;;;;2.90;1.50;;;18.30;99.90;;;;;;5023027;28;20052;-79
2022/10/26 09:52:56;;;;;;;1.80;1.30;;;18.30;99.90;;;;;;5021431;28;20060;-79
2022/10/26 09:55:23;;;;;;;2.42;1.23;;;18.30;99.90;;;;;;5039914;28;20466;-80
2022/10/26 09:57:52;;;;;;;2.28;1.25;;;18.30;99.90;;;;;;5021699;28;20062;-79
2022/10/26 10:00:21;;;;;;;2.45;1.50;;;18.30;99.90;;;;;;5005103;28;20060;-79
2022/10/26 10:02:52;;;;;;;2.83;1.15;;;18.30;99.90;;;;;;5006735;28;20452;-79
2022/10/26 10:05:30;;;;;;;3.70;1.33;;;18.30;99.90;;;;;;5024708;28;20357;-78
2022/10/26 10:08:24;;;;;;;1.35;1.00;;;18.30;99.90;;;;;;5025885;28;20060;-79
2022/10/26 10:10:59;;;;;;;2.55;1.40;;;18.30;99.90;;;;;;5005703;28;20524;-79
2022/10/26 10:13:28;;;;;;;3.08;1.27;;;18.30;99.90;;;;;;5021949;28;20059;-79
2022/10/26 10:16:17;;;;;;;3.67;1.17;;;18.40;99.90;;;;;;5028015;28;20207;-79
2022/10/26 10:18:54;;;;;;;2.22;1.10;;;18.30;99.90;;;;;;5029256;28;20144;-79
2022/10/26 10:21:34;;;;;;;2.28;1.30;;;18.30;99.90;;;;;;5022777;28;20506;-78
2022/10/26 10:24:01;;;;;;;2.05;1.20;;;18.40;99.90;;;;;;5037953;28;20052;-79
2022/10/26 10:26:28;;;;;;;1.80;0.85;;;18.50;99.90;;;;;;5007123;28;20053;-79
2022/10/26 10:28:59;;;;;;;2.22;1.25;;;18.60;99.90;;;;;;5023247;28;20095;-79
2022/10/26 10:31:30;;;;;;;3.22;1.40;;;18.60;99.90;;;;;;5011721;28;20106;-79
2022/10/26 10:33:58;;;;;;;2.70;1.05;;;18.60;99.90;;;;;;5006881;28;20088;-79
2022/10/26 10:36:28;;;;;;;2.70;1.02;;;18.70;99.90;;;;;;5039249;28;20076;-78
2022/10/26 10:38:55;;;;;;;2.85;1.00;;;18.70;99.90;;;;;;5021743;28;20204;-78
2022/10/26 10:41:35;;;;;;;2.30;0.90;;;18.80;99.90;;;;;;5049379;28;20480;-79
2022/10/26 10:44:15;;;;;;;2.47;1.23;;;18.90;99.90;;;;;;5003959;28;20054;-78
2022/10/26 10:46:41;;;;;;;2.25;1.17;;;19.10;99.90;;;;;;5039736;28;20128;-78
2022/10/26 10:49:20;;;;;;;1.98;0.90;;;19.30;99.90;;;;;;5010351;28;20053;-78
2022/10/26 10:51:47;;;;;;;3.17;1.27;;;19.40;99.90;;;;;;5005355;28;20085;-79
2022/10/26 10:54:35;;;;;;;2.80;1.30;;;19.40;99.90;;;;;;5022843;28;20057;-79
2022/10/26 10:57:04;;;;;;;3.63;1.40;;;19.40;99.90;;;;;;5022308;28;20448;-78
2022/10/26 10:59:40;;;;;;;3.72;1.40;;;19.40;99.90;;;;;;5045422;28;20049;-78
2022/10/26 11:02:28;;;;;;;2.80;1.30;;;19.40;99.90;;;;;;5039291;28;20053;-77
2022/10/26 11:05:14;;;;;;;5.00;1.65;;;19.60;99.90;;;;;;5040493;28;20056;-78
2022/10/26 11:07:59;;;;;;;2.80;1.40;;;19.60;99.90;;;;;;5056082;28;20171;-78
2022/10/26 11:10:26;;;;;;;2.70;1.35;;;19.60;99.90;;;;;;5038901;28;20056;-78
2022/10/26 11:12:58;;;;;;;4.00;1.30;;;19.70;99.90;;;;;;5004882;28;20056;-78
2022/10/26 11:15:27;;;;;;;2.03;1.20;;;19.70;99.90;;;;;;5025455;28;21269;-77
2022/10/26 11:18:10;;;;;;;4.15;1.70;;;19.90;99.90;;;;;;5023270;28;20424;-77
2022/10/26 11:20:51;;;;;;;4.13;1.55;;;19.90;99.90;;;;;;5026662;28;20139;-78
2022/10/26 11:23:25;;;;;;;3.67;1.45;;;20.00;99.90;;;;;;5009065;28;20136;-78
2022/10/26 11:26:08;;;;;;;3.33;1.25;;;20.00;99.90;;;;;;5021370;28;20045;-78
2022/10/26 11:29:22;;;;;;;2.13;1.17;;;20.10;99.90;;;;;;5042710;28;20064;-78
2022/10/26 11:32:11;;;;;;;3.92;1.40;;;20.10;99.90;;;;;;4958780;28;20069;-78
2022/10/26 11:34:56;;;;;;;2.42;1.20;;;20.20;99.90;;;;;;5019082;28;20056;-78
2022/10/26 11:37:37;;;;;;;3.40;1.65;;;20.20;99.90;;;;;;5007288;28;20079;-79
2022/10/26 11:40:26;;;;;;;3.95;1.50;;;20.20;99.90;;;;;;5022169;28;20053;-79
2022/10/26 11:43:19;;;;;;;2.33;1.20;;;20.40;99.90;;;;;;5038784;28;20155;-78
2022/10/26 11:45:57;;;;;;;2.65;1.27;;;20.50;99.90;;;;;;5022159;28;20064;-78
2022/10/26 11:48:34;;;;;;;2.42;1.27;;;20.60;99.90;;;;;;5010125;28;20073;-78
2022/10/26 11:51:32;;;;;;;3.90;1.50;;;20.70;99.90;;;;;;5050789;28;20925;-78
2022/10/26 11:54:02;;;;;;;4.65;1.67;;;20.70;99.90;;;;;;5043077;28;20041;-79
2022/10/26 11:56:31;;;;;;;4.63;1.60;;;20.60;99.90;;;;;;5034835;28;20495;-79
2022/10/26 11:58:58;;;;;;;3.97;1.70;;;20.70;99.90;;;;;;5041612;28;20049;-79
2022/10/26 12:01:25;;;;;;;3.83;1.88;;;20.80;99.90;;;;;;5049947;28;20553;-79
2022/10/26 12:03:52;;;;;;;2.50;1.30;;;20.80;99.90;;;;;;5044922;28;20094;-79
2022/10/26 12:06:26;;;;;;;2.97;1.75;;;20.90;99.90;;;;;;5032121;28;20520;-79
2022/10/26 12:08:58;;;;;;;4.43;1.90;;;21.10;99.90;;;;;;5022989;28;20081;-78
2022/10/26 12:11:31;;;;;;;3.83;1.70;;;21.10;99.90;;;;;;5041016;28;20053;-78
2022/10/26 12:14:01;;;;;;;;;;;21.20;99.90;;;;;;5056910;28;20044;-78
2022/10/26 12:16:51;;;;;;;2.83;1.50;;;21.10;99.90;;;;;;5054347;28;19932;-78
2022/10/26 12:19:23;;;;;;;2.55;1.35;;;20.90;99.90;;;;;;5049605;28;20481;-78
2022/10/26 12:21:50;;;;;;;2.70;1.45;;;20.90;99.90;;;;;;5034211;28;20065;-79
2022/10/26 12:24:24;;;;;;;4.80;1.88;;;21.10;99.90;;;;;;5025917;28;20386;-78
2022/10/26 12:26:54;;;;;;;3.85;1.60;;;21.20;99.90;;;;;;5018072;28;20722;-78
2022/10/26 12:29:28;;;;;;;3.95;1.73;;;21.40;99.90;;;;;;5034197;28;20479;-79
2022/10/26 12:31:55;;;;;;;4.10;1.60;;;21.60;99.90;;;;;;5026809;28;20049;-78
2022/10/26 12:34:23;;;;;;;4.25;1.70;;;21.60;99.90;;;;;;5016585;28;20159;-78
2022/10/26 12:36:56;;;;;;;4.38;1.45;;;21.50;99.90;;;;;;5048020;28;20055;-78
2022/10/26 12:39:28;;;;;;;;;;;21.50;99.90;;;;;;5042055;28;20165;-78
2022/10/26 12:42:15;;;;;;;3.25;1.70;;;21.30;99.90;;;;;;5048271;28;19925;-79
2022/10/26 12:44:44;;;;;;;4.32;1.83;;;21.00;99.90;;;;;;5047301;28;20556;-80
2022/10/26 12:47:29;;;;;;;3.55;1.40;;;20.80;99.90;;;;;;5051465;28;20249;-81
2022/10/26 12:50:06;;;;;;;3.53;1.23;;;20.40;99.90;;;;;;5035289;28;20408;-76
2022/10/26 12:52:46;;;;;;;4.10;1.40;;;20.30;99.90;;;;;;5034070;28;20049;-76
2022/10/26 12:55:19;;;;;;;4.90;1.77;;;20.10;99.90;;;;;;5023722;28;20136;-76
2022/10/26 12:57:50;;;;;;;2.95;1.55;;;20.10;99.90;;;;;;5034311;28;20115;-76
2022/10/26 13:00:20;;;;;;;3.80;1.33;;;20.10;99.90;;;;;;5035456;28;20462;-76
2022/10/26 13:03:09;;;;;;;2.85;1.42;;;20.10;99.90;;;;;;5016377;28;20074;-76
2022/10/26 13:05:46;;;;;;;3.60;1.63;;;20.30;99.90;;;;;;5045149;28;20140;-76
2022/10/26 13:08:12;;;;;;;3.88;1.40;;;20.70;99.90;;;;;;5029690;28;20115;-76
2022/10/26 13:11:02;;;;;;;3.88;1.65;;;21.00;99.90;;;;;;5029734;28;20148;-76
2022/10/26 13:13:30;;;;;;;4.03;1.40;;;21.20;99.90;;;;;;5045740;28;20416;-77